sensor_id;sensor_type;location;lat;lon;timestamp;pressure;altitude;pressure_sealevel;temperature;humidity
57847;BME280;43675;50.030;21.952;2024-03-08T00:00:12;99397.92;;;1.17;70.31
57847;BME280;43675;50.030;21.952;2024-03-08T00:02:59;99394.70;;;1.20;70.16
57847;BME280;43675;50.030;21.952;2024-03-08T00:05:26;99393.05;;;1.19;70.25
57847;BME280;43675;50.030;21.952;2024-03-08T00:07:53;99391.06;;;1.15;70.21
57847;BME280;43675;50.030;21.952;2024-03-08T00:10:19;99392.23;;;1.12;70.32
57847;BME280;43675;50.030;21.952;2024-03-08T00:12:46;99391.19;;;1.08;70.03
57847;BME280;43675;50.030;21.952;2024-03-08T00:15:16;99387.41;;;0.95;70.27
57847;BME280;43675;50.030;21.952;2024-03-08T00:17:44;99385.56;;;0.78;70.65
57847;BME280;43675;50.030;21.952;2024-03-08T00:20:11;99385.59;;;0.76;70.88
57847;BME280;43675;50.030;21.952;2024-03-08T00:22:38;99387.63;;;0.75;70.95
57847;BME280;43675;50.030;21.952;2024-03-08T00:25:06;99388.02;;;0.72;70.79
57847;BME280;43675;50.030;21.952;2024-03-08T00:27:33;99388.09;;;0.66;70.85
57847;BME280;43675;50.030;21.952;2024-03-08T00:30:00;99390.79;;;0.55;70.88
57847;BME280;43675;50.030;21.952;2024-03-08T00:32:29;99393.08;;;0.31;71.14
57847;BME280;43675;50.030;21.952;2024-03-08T00:34:56;99394.27;;;0.05;71.73
57847;BME280;43675;50.030;21.952;2024-03-08T00:37:27;99397.54;;;-0.17;71.98
57847;BME280;43675;50.030;21.952;2024-03-08T00:39:54;99392.23;;;-0.39;72.51
57847;BME280;43675;50.030;21.952;2024-03-08T00:42:23;99392.69;;;-0.59;73.01
57847;BME280;43675;50.030;21.952;2024-03-08T00:44:53;99392.63;;;-0.79;73.29
57847;BME280;43675;50.030;21.952;2024-03-08T00:47:20;99389.09;;;-0.99;73.84
57847;BME280;43675;50.030;21.952;2024-03-08T00:49:49;99392.31;;;-1.12;74.10
57847;BME280;43675;50.030;21.952;2024-03-08T00:52:25;99388.95;;;-1.33;74.73
57847;BME280;43675;50.030;21.952;2024-03-08T00:54:52;99392.44;;;-1.53;74.97
57847;BME280;43675;50.030;21.952;2024-03-08T00:57:24;99394.23;;;-1.69;75.71
57847;BME280;43675;50.030;21.952;2024-03-08T00:59:53;99388.97;;;-1.84;76.32
57847;BME280;43675;50.030;21.952;2024-03-08T01:02:23;99385.80;;;-1.96;76.70
57847;BME280;43675;50.030;21.952;2024-03-08T01:04:55;99391.34;;;-2.06;77.01
57847;BME280;43675;50.030;21.952;2024-03-08T01:07:27;99391.86;;;-2.15;77.40
57847;BME280;43675;50.030;21.952;2024-03-08T01:09:54;99394.05;;;-2.23;78.01
57847;BME280;43675;50.030;21.952;2024-03-08T01:12:26;99394.54;;;-2.27;78.22
57847;BME280;43675;50.030;21.952;2024-03-08T01:14:53;99392.55;;;-2.28;78.77
57847;BME280;43675;50.030;21.952;2024-03-08T01:17:20;99389.97;;;-2.15;79.06
57847;BME280;43675;50.030;21.952;2024-03-08T01:19:47;99386.10;;;-1.99;78.88
57847;BME280;43675;50.030;21.952;2024-03-08T01:22:20;99379.23;;;-1.97;79.05
57847;BME280;43675;50.030;21.952;2024-03-08T01:24:52;99379.25;;;-2.04;79.26
57847;BME280;43675;50.030;21.952;2024-03-08T01:27:31;99379.09;;;-2.11;79.39
57847;BME280;43675;50.030;21.952;2024-03-08T01:29:59;99377.83;;;-2.15;79.87
57847;BME280;43675;50.030;21.952;2024-03-08T01:32:25;99373.17;;;-2.04;79.78
57847;BME280;43675;50.030;21.952;2024-03-08T01:34:52;99368.77;;;-1.95;79.59
57847;BME280;43675;50.030;21.952;2024-03-08T01:37:19;99368.58;;;-1.88;79.53
57847;BME280;43675;50.030;21.952;2024-03-08T01:39:45;99368.96;;;-1.84;79.51
57847;BME280;43675;50.030;21.952;2024-03-08T01:42:15;99368.71;;;-1.83;79.56
57847;BME280;43675;50.030;21.952;2024-03-08T01:44:45;99370.88;;;-1.98;79.86
57847;BME280;43675;50.030;21.952;2024-03-08T01:47:21;99368.55;;;-2.13;79.82
57847;BME280;43675;50.030;21.952;2024-03-08T01:49:49;99370.67;;;-2.22;80.43
57847;BME280;43675;50.030;21.952;2024-03-08T01:52:26;99366.83;;;-2.13;80.57
57847;BME280;43675;50.030;21.952;2024-03-08T01:55:03;99364.90;;;-2.11;80.25
57847;BME280;43675;50.030;21.952;2024-03-08T01:57:32;99362.00;;;-2.12;80.20
57847;BME280;43675;50.030;21.952;2024-03-08T02:00:01;99362.82;;;-2.11;80.27
57847;BME280;43675;50.030;21.952;2024-03-08T02:02:28;99360.90;;;-2.09;80.39
57847;BME280;43675;50.030;21.952;2024-03-08T02:04:55;99357.88;;;-2.06;80.44
57847;BME280;43675;50.030;21.952;2024-03-08T02:07:22;99357.40;;;-2.04;80.26
57847;BME280;43675;50.030;21.952;2024-03-08T02:09:49;99354.17;;;-2.04;80.35
57847;BME280;43675;50.030;21.952;2024-03-08T02:12:15;99351.98;;;-2.05;80.58
57847;BME280;43675;50.030;21.952;2024-03-08T02:14:42;99350.09;;;-2.08;80.42
57847;BME280;43675;50.030;21.952;2024-03-08T02:17:17;99351.16;;;-2.23;80.82
57847;BME280;43675;50.030;21.952;2024-03-08T02:19:43;99350.75;;;-2.39;81.32
57847;BME280;43675;50.030;21.952;2024-03-08T02:22:10;99354.27;;;-2.52;81.05
57847;BME280;43675;50.030;21.952;2024-03-08T02:24:43;99351.06;;;-2.56;81.62
57847;BME280;43675;50.030;21.952;2024-03-08T02:27:10;99350.70;;;-2.61;81.95
57847;BME280;43675;50.030;21.952;2024-03-08T02:29:36;99350.11;;;-2.51;81.99
57847;BME280;43675;50.030;21.952;2024-03-08T02:32:03;99346.85;;;-2.40;81.77
57847;BME280;43675;50.030;21.952;2024-03-08T02:34:31;99345.96;;;-2.33;81.92
57847;BME280;43675;50.030;21.952;2024-03-08T02:36:58;99343.73;;;-2.39;82.01
57847;BME280;43675;50.030;21.952;2024-03-08T02:39:36;99345.67;;;-2.45;82.21
57847;BME280;43675;50.030;21.952;2024-03-08T02:42:24;99346.78;;;-2.60;82.29
57847;BME280;43675;50.030;21.952;2024-03-08T02:45:00;99345.71;;;-2.71;82.65
57847;BME280;43675;50.030;21.952;2024-03-08T02:47:35;99345.05;;;-2.79;82.79
57847;BME280;43675;50.030;21.952;2024-03-08T02:50:02;99346.56;;;-2.85;82.87
57847;BME280;43675;50.030;21.952;2024-03-08T02:52:47;99345.67;;;-2.89;83.26
57847;BME280;43675;50.030;21.952;2024-03-08T02:55:24;99345.84;;;-2.94;83.35
57847;BME280;43675;50.030;21.952;2024-03-08T02:57:52;99346.91;;;-2.99;83.47
57847;BME280;43675;50.030;21.952;2024-03-08T03:00:20;99348.20;;;-3.02;83.80
57847;BME280;43675;50.030;21.952;2024-03-08T03:02:50;99348.91;;;-3.07;83.99
57847;BME280;43675;50.030;21.952;2024-03-08T03:05:21;99345.80;;;-3.10;84.26
57847;BME280;43675;50.030;21.952;2024-03-08T03:07:53;99349.36;;;-3.13;84.53
57847;BME280;43675;50.030;21.952;2024-03-08T03:10:20;99347.81;;;-3.16;84.60
57847;BME280;43675;50.030;21.952;2024-03-08T03:12:47;99350.52;;;-3.08;84.54
57847;BME280;43675;50.030;21.952;2024-03-08T03:15:14;99349.31;;;-2.96;84.53
57847;BME280;43675;50.030;21.952;2024-03-08T03:17:41;99352.39;;;-2.85;84.60
57847;BME280;43675;50.030;21.952;2024-03-08T03:20:08;99351.34;;;-2.76;84.61
57847;BME280;43675;50.030;21.952;2024-03-08T03:22:36;99356.77;;;-2.67;84.37
57847;BME280;43675;50.030;21.952;2024-03-08T03:25:04;99356.78;;;-2.58;84.49
57847;BME280;43675;50.030;21.952;2024-03-08T03:27:31;99352.55;;;-2.51;84.32
57847;BME280;43675;50.030;21.952;2024-03-08T03:29:57;99356.23;;;-2.44;84.34
57847;BME280;43675;50.030;21.952;2024-03-08T03:32:24;99358.89;;;-2.35;84.52
57847;BME280;43675;50.030;21.952;2024-03-08T03:34:50;99356.01;;;-2.25;84.24
57847;BME280;43675;50.030;21.952;2024-03-08T03:37:20;99354.74;;;-2.24;84.26
57847;BME280;43675;50.030;21.952;2024-03-08T03:39:54;99357.96;;;-2.32;84.28
57847;BME280;43675;50.030;21.952;2024-03-08T03:42:24;99362.07;;;-2.35;84.49
57847;BME280;43675;50.030;21.952;2024-03-08T03:45:00;99358.88;;;-2.37;84.42
57847;BME280;43675;50.030;21.952;2024-03-08T03:47:30;99355.89;;;-2.37;84.66
57847;BME280;43675;50.030;21.952;2024-03-08T03:49:56;99350.18;;;-2.22;84.39
57847;BME280;43675;50.030;21.952;2024-03-08T03:52:26;99351.41;;;-2.11;84.08
57847;BME280;43675;50.030;21.952;2024-03-08T03:54:56;99349.61;;;-2.15;83.89
57847;BME280;43675;50.030;21.952;2024-03-08T03:57:26;99349.95;;;-2.19;84.20
57847;BME280;43675;50.030;21.952;2024-03-08T03:59:58;99350.23;;;-2.23;84.07
57847;BME280;43675;50.030;21.952;2024-03-08T04:02:44;99346.92;;;-2.25;84.29
57847;BME280;43675;50.030;21.952;2024-03-08T04:05:11;99345.60;;;-2.26;84.29
57847;BME280;43675;50.030;21.952;2024-03-08T04:07:39;99345.97;;;-2.24;84.06
57847;BME280;43675;50.030;21.952;2024-03-08T04:10:08;99343.71;;;-2.15;83.98
57847;BME280;43675;50.030;21.952;2024-03-08T04:12:38;99336.71;;;-2.07;83.84
57847;BME280;43675;50.030;21.952;2024-03-08T04:15:08;99339.00;;;-2.09;83.57
57847;BME280;43675;50.030;21.952;2024-03-08T04:17:35;99335.16;;;-2.21;83.56
57847;BME280;43675;50.030;21.952;2024-03-08T04:20:01;99337.06;;;-2.18;83.90
57847;BME280;43675;50.030;21.952;2024-03-08T04:22:28;99335.00;;;-2.14;83.69
57847;BME280;43675;50.030;21.952;2024-03-08T04:24:55;99335.10;;;-2.17;83.50
57847;BME280;43675;50.030;21.952;2024-03-08T04:27:24;99330.66;;;-2.32;83.55
57847;BME280;43675;50.030;21.952;2024-03-08T04:29:53;99334.41;;;-2.47;83.80
57847;BME280;43675;50.030;21.952;2024-03-08T04:35:30;99333.77;;;-2.77;84.03
57847;BME280;43675;50.030;21.952;2024-03-08T04:38:10;99332.81;;;-2.91;84.39
57847;BME280;43675;50.030;21.952;2024-03-08T04:41:03;99332.61;;;-3.02;84.63
57847;BME280;43675;50.030;21.952;2024-03-08T04:43:36;99333.31;;;-3.14;84.86
57847;BME280;43675;50.030;21.952;2024-03-08T04:46:04;99335.84;;;-3.19;85.10
57847;BME280;43675;50.030;21.952;2024-03-08T04:48:31;99334.54;;;-3.14;85.33
57847;BME280;43675;50.030;21.952;2024-03-08T04:50:58;99334.16;;;-3.06;85.15
57847;BME280;43675;50.030;21.952;2024-03-08T04:53:24;99335.71;;;-3.01;85.03
57847;BME280;43675;50.030;21.952;2024-03-08T04:55:51;99341.70;;;-3.02;85.02
57847;BME280;43675;50.030;21.952;2024-03-08T04:58:21;99341.79;;;-3.12;85.39
57847;BME280;43675;50.030;21.952;2024-03-08T05:00:58;99337.65;;;-3.20;86.02
57847;BME280;43675;50.030;21.952;2024-03-08T05:03:45;99343.03;;;-3.22;86.11
57847;BME280;43675;50.030;21.952;2024-03-08T05:06:11;99341.13;;;-3.22;86.33
57847;BME280;43675;50.030;21.952;2024-03-08T05:08:38;99340.30;;;-3.09;86.28
57847;BME280;43675;50.030;21.952;2024-03-08T05:11:05;99339.02;;;-2.99;85.86
57847;BME280;43675;50.030;21.952;2024-03-08T05:13:32;99337.61;;;-2.92;86.03
57847;BME280;43675;50.030;21.952;2024-03-08T05:16:02;99342.73;;;-2.95;85.98
57847;BME280;43675;50.030;21.952;2024-03-08T05:18:29;99349.44;;;-3.04;86.03
57847;BME280;43675;50.030;21.952;2024-03-08T05:21:06;99351.80;;;-3.13;86.32
57847;BME280;43675;50.030;21.952;2024-03-08T05:23:33;99354.58;;;-3.15;86.74
57847;BME280;43675;50.030;21.952;2024-03-08T05:26:00;99352.09;;;-3.00;86.62
57847;BME280;43675;50.030;21.952;2024-03-08T05:31:14;99355.14;;;-2.80;86.29
57847;BME280;43675;50.030;21.952;2024-03-08T05:33:56;99361.87;;;-2.81;86.67
57847;BME280;43675;50.030;21.952;2024-03-08T05:36:35;99358.88;;;-2.76;86.71
57847;BME280;43675;50.030;21.952;2024-03-08T05:39:11;99359.05;;;-2.76;86.60
57847;BME280;43675;50.030;21.952;2024-03-08T05:41:50;99365.90;;;-2.72;86.67
57847;BME280;43675;50.030;21.952;2024-03-08T05:44:17;99367.60;;;-2.64;86.67
57847;BME280;43675;50.030;21.952;2024-03-08T05:46:44;99368.40;;;-2.43;86.57
57847;BME280;43675;50.030;21.952;2024-03-08T05:49:10;99368.34;;;-2.21;86.27
57847;BME280;43675;50.030;21.952;2024-03-08T05:51:38;99367.17;;;-2.04;85.85
57847;BME280;43675;50.030;21.952;2024-03-08T05:54:09;99367.80;;;-1.87;85.57
57847;BME280;43675;50.030;21.952;2024-03-08T05:56:37;99364.95;;;-1.71;85.28
57847;BME280;43675;50.030;21.952;2024-03-08T05:59:04;99362.50;;;-1.54;84.81
57847;BME280;43675;50.030;21.952;2024-03-08T06:01:31;99365.90;;;-1.44;84.37
57847;BME280;43675;50.030;21.952;2024-03-08T06:04:01;99360.84;;;-1.46;84.54
57847;BME280;43675;50.030;21.952;2024-03-08T06:06:28;99364.78;;;-1.47;84.22
57847;BME280;43675;50.030;21.952;2024-03-08T06:08:58;99369.65;;;-1.31;84.09
57847;BME280;43675;50.030;21.952;2024-03-08T06:11:31;99368.29;;;-1.23;83.81
57847;BME280;43675;50.030;21.952;2024-03-08T06:14:01;99368.53;;;-1.18;83.65
57847;BME280;43675;50.030;21.952;2024-03-08T06:16:28;99367.45;;;-1.05;83.20
57847;BME280;43675;50.030;21.952;2024-03-08T06:18:56;99365.05;;;-0.96;82.83
57847;BME280;43675;50.030;21.952;2024-03-08T06:21:23;99363.30;;;-0.76;82.71
57847;BME280;43675;50.030;21.952;2024-03-08T06:23:50;99360.09;;;-0.52;82.13
57847;BME280;43675;50.030;21.952;2024-03-08T06:26:19;99364.58;;;-0.42;81.40
57847;BME280;43675;50.030;21.952;2024-03-08T06:29:07;99364.12;;;-0.43;81.10
57847;BME280;43675;50.030;21.952;2024-03-08T06:31:33;99368.73;;;-0.40;80.72
57847;BME280;43675;50.030;21.952;2024-03-08T06:34:00;99374.47;;;-0.25;80.13
57847;BME280;43675;50.030;21.952;2024-03-08T06:36:33;99370.24;;;-0.18;79.72
57847;BME280;43675;50.030;21.952;2024-03-08T06:39:00;99366.09;;;-0.01;79.58
57847;BME280;43675;50.030;21.952;2024-03-08T06:41:27;99364.39;;;0.19;78.59
57847;BME280;43675;50.030;21.952;2024-03-08T06:43:53;99362.48;;;0.35;78.09
57847;BME280;43675;50.030;21.952;2024-03-08T06:46:20;99357.49;;;0.49;77.68
57847;BME280;43675;50.030;21.952;2024-03-08T06:48:46;99360.39;;;0.61;76.96
57847;BME280;43675;50.030;21.952;2024-03-08T06:51:13;99357.57;;;0.70;76.47
57847;BME280;43675;50.030;21.952;2024-03-08T06:53:40;99352.81;;;0.78;75.85
57847;BME280;43675;50.030;21.952;2024-03-08T06:56:07;99350.31;;;0.83;75.50
57847;BME280;43675;50.030;21.952;2024-03-08T06:58:34;99349.14;;;0.84;75.05
57847;BME280;43675;50.030;21.952;2024-03-08T07:01:01;99355.39;;;0.77;75.13
57847;BME280;43675;50.030;21.952;2024-03-08T07:03:28;99356.52;;;0.76;75.31
57847;BME280;43675;50.030;21.952;2024-03-08T07:06:03;99356.54;;;0.84;75.27
57847;BME280;43675;50.030;21.952;2024-03-08T07:08:30;99355.98;;;1.00;75.23
57847;BME280;43675;50.030;21.952;2024-03-08T07:10:57;99355.02;;;1.16;74.76
57847;BME280;43675;50.030;21.952;2024-03-08T07:13:24;99351.20;;;1.42;74.43
57847;BME280;43675;50.030;21.952;2024-03-08T07:15:50;99354.29;;;1.66;73.42
57847;BME280;43675;50.030;21.952;2024-03-08T07:18:17;99352.30;;;1.83;72.78
57847;BME280;43675;50.030;21.952;2024-03-08T07:20:44;99351.52;;;1.98;72.17
57847;BME280;43675;50.030;21.952;2024-03-08T07:23:10;99349.77;;;2.06;71.36
57847;BME280;43675;50.030;21.952;2024-03-08T07:25:37;99345.77;;;2.15;71.10
57847;BME280;43675;50.030;21.952;2024-03-08T07:28:04;99342.95;;;2.26;70.82
57847;BME280;43675;50.030;21.952;2024-03-08T07:30:31;99343.23;;;2.42;70.61
57847;BME280;43675;50.030;21.952;2024-03-08T07:32:57;99341.85;;;2.54;70.02
57847;BME280;43675;50.030;21.952;2024-03-08T07:35:24;99345.98;;;2.57;69.83
57847;BME280;43675;50.030;21.952;2024-03-08T07:37:50;99344.91;;;2.62;69.76
57847;BME280;43675;50.030;21.952;2024-03-08T07:40:17;99341.42;;;2.69;69.48
57847;BME280;43675;50.030;21.952;2024-03-08T07:42:44;99346.07;;;2.74;68.75
57847;BME280;43675;50.030;21.952;2024-03-08T07:45:11;99343.39;;;2.81;68.49
57847;BME280;43675;50.030;21.952;2024-03-08T07:47:37;99341.83;;;2.90;68.35
57847;BME280;43675;50.030;21.952;2024-03-08T07:50:05;99339.30;;;3.02;68.48
57847;BME280;43675;50.030;21.952;2024-03-08T07:52:32;99340.39;;;3.19;67.63
57847;BME280;43675;50.030;21.952;2024-03-08T07:54:58;99340.03;;;3.40;67.15
57847;BME280;43675;50.030;21.952;2024-03-08T07:57:25;99338.15;;;3.47;66.39
57847;BME280;43675;50.030;21.952;2024-03-08T07:59:52;99342.73;;;3.45;66.66
57847;BME280;43675;50.030;21.952;2024-03-08T08:02:24;99342.57;;;3.45;66.24
57847;BME280;43675;50.030;21.952;2024-03-08T08:04:51;99344.87;;;3.52;66.72
57847;BME280;43675;50.030;21.952;2024-03-08T08:07:18;99342.58;;;3.66;66.17
57847;BME280;43675;50.030;21.952;2024-03-08T08:09:52;99334.05;;;3.78;66.13
57847;BME280;43675;50.030;21.952;2024-03-08T08:12:19;99338.36;;;3.90;65.41
57847;BME280;43675;50.030;21.952;2024-03-08T08:14:45;99338.76;;;3.96;64.46
57847;BME280;43675;50.030;21.952;2024-03-08T08:17:12;99333.81;;;4.01;64.43
57847;BME280;43675;50.030;21.952;2024-03-08T08:19:42;99337.16;;;4.08;64.16
57847;BME280;43675;50.030;21.952;2024-03-08T08:22:09;99336.52;;;4.16;63.52
57847;BME280;43675;50.030;21.952;2024-03-08T08:24:36;99335.01;;;4.25;63.57
57847;BME280;43675;50.030;21.952;2024-03-08T08:27:03;99330.63;;;4.35;63.22
57847;BME280;43675;50.030;21.952;2024-03-08T08:29:30;99325.22;;;4.44;62.66
57847;BME280;43675;50.030;21.952;2024-03-08T08:32:00;99330.28;;;4.55;62.50
57847;BME280;43675;50.030;21.952;2024-03-08T08:34:26;99332.46;;;4.61;62.44
57847;BME280;43675;50.030;21.952;2024-03-08T08:36:53;99334.01;;;4.63;62.12
57847;BME280;43675;50.030;21.952;2024-03-08T08:39:20;99330.42;;;4.65;61.36
57847;BME280;43675;50.030;21.952;2024-03-08T08:41:46;99328.51;;;4.65;61.18
57847;BME280;43675;50.030;21.952;2024-03-08T08:44:13;99326.56;;;4.62;60.96
57847;BME280;43675;50.030;21.952;2024-03-08T08:46:39;99323.84;;;4.57;61.47
57847;BME280;43675;50.030;21.952;2024-03-08T08:49:06;99323.96;;;4.63;61.18
57847;BME280;43675;50.030;21.952;2024-03-08T08:51:33;99319.41;;;4.75;61.24
57847;BME280;43675;50.030;21.952;2024-03-08T08:54:00;99322.91;;;4.91;60.93
57847;BME280;43675;50.030;21.952;2024-03-08T08:56:26;99320.77;;;5.09;60.48
57847;BME280;43675;50.030;21.952;2024-03-08T08:58:59;99319.19;;;5.27;60.06
57847;BME280;43675;50.030;21.952;2024-03-08T09:01:26;99318.02;;;5.41;59.28
57847;BME280;43675;50.030;21.952;2024-03-08T09:03:59;99320.73;;;5.50;58.62
57847;BME280;43675;50.030;21.952;2024-03-08T09:06:26;99316.92;;;5.62;58.86
57847;BME280;43675;50.030;21.952;2024-03-08T09:08:53;99313.33;;;5.71;58.08
57847;BME280;43675;50.030;21.952;2024-03-08T09:11:19;99307.92;;;5.81;58.22
57847;BME280;43675;50.030;21.952;2024-03-08T09:13:46;99305.71;;;5.92;58.04
57847;BME280;43675;50.030;21.952;2024-03-08T09:16:12;99308.44;;;6.04;57.54
57847;BME280;43675;50.030;21.952;2024-03-08T09:18:39;99302.08;;;6.06;56.72
57847;BME280;43675;50.030;21.952;2024-03-08T09:21:06;99302.25;;;6.02;56.31
57847;BME280;43675;50.030;21.952;2024-03-08T09:23:39;99301.53;;;5.99;56.09
57847;BME280;43675;50.030;21.952;2024-03-08T09:26:06;99302.33;;;6.12;55.94
57847;BME280;43675;50.030;21.952;2024-03-08T09:28:32;99297.72;;;6.25;56.02
57847;BME280;43675;50.030;21.952;2024-03-08T09:30:59;99294.98;;;6.42;55.59
57847;BME280;43675;50.030;21.952;2024-03-08T09:33:25;99295.28;;;6.59;54.80
57847;BME280;43675;50.030;21.952;2024-03-08T09:35:52;99294.54;;;6.62;54.02
57847;BME280;43675;50.030;21.952;2024-03-08T09:38:19;99292.22;;;6.59;54.15
57847;BME280;43675;50.030;21.952;2024-03-08T09:40:51;99293.89;;;6.52;53.49
57847;BME280;43675;50.030;21.952;2024-03-08T09:43:18;99289.60;;;6.42;53.46
57847;BME280;43675;50.030;21.952;2024-03-08T09:45:52;99293.24;;;6.38;54.02
57847;BME280;43675;50.030;21.952;2024-03-08T09:48:19;99290.17;;;6.38;54.16
57847;BME280;43675;50.030;21.952;2024-03-08T09:50:46;99290.42;;;6.45;54.01
57847;BME280;43675;50.030;21.952;2024-03-08T09:53:13;99293.56;;;6.56;53.36
57847;BME280;43675;50.030;21.952;2024-03-08T09:55:40;99294.71;;;6.67;53.01
57847;BME280;43675;50.030;21.952;2024-03-08T09:58:07;99293.21;;;6.77;52.53
57847;BME280;43675;50.030;21.952;2024-03-08T10:00:34;99290.55;;;6.74;52.02
57847;BME280;43675;50.030;21.952;2024-03-08T10:03:08;99289.16;;;6.70;52.50
57847;BME280;43675;50.030;21.952;2024-03-08T10:05:34;99290.55;;;6.77;52.75
57847;BME280;43675;50.030;21.952;2024-03-08T10:08:01;99291.19;;;6.84;52.56
57847;BME280;43675;50.030;21.952;2024-03-08T10:10:28;99288.83;;;6.87;52.79
57847;BME280;43675;50.030;21.952;2024-03-08T10:12:55;99291.45;;;6.90;52.35
57847;BME280;43675;50.030;21.952;2024-03-08T10:15:22;99291.41;;;7.01;52.00
57847;BME280;43675;50.030;21.952;2024-03-08T10:17:48;99290.17;;;7.12;51.20
57847;BME280;43675;50.030;21.952;2024-03-08T10:20:16;99292.73;;;7.19;51.00
57847;BME280;43675;50.030;21.952;2024-03-08T10:22:43;99293.63;;;7.28;51.37
57847;BME280;43675;50.030;21.952;2024-03-08T10:25:13;99289.17;;;7.33;50.81
57847;BME280;43675;50.030;21.952;2024-03-08T10:27:40;99287.46;;;7.23;50.61
57847;BME280;43675;50.030;21.952;2024-03-08T10:30:15;99289.88;;;7.05;50.32
57847;BME280;43675;50.030;21.952;2024-03-08T10:32:42;99295.98;;;6.87;51.11
57847;BME280;43675;50.030;21.952;2024-03-08T10:35:08;99289.80;;;6.66;50.86
57847;BME280;43675;50.030;21.952;2024-03-08T10:40:17;99289.55;;;6.51;51.65
57847;BME280;43675;50.030;21.952;2024-03-08T10:43:04;99288.65;;;6.44;51.91
57847;BME280;43675;50.030;21.952;2024-03-08T10:45:39;99288.61;;;6.47;52.25
57847;BME280;43675;50.030;21.952;2024-03-08T10:50:53;99280.54;;;6.57;52.10
57847;BME280;43675;50.030;21.952;2024-03-08T10:53:20;99281.40;;;6.62;52.02
57847;BME280;43675;50.030;21.952;2024-03-08T10:55:49;99273.81;;;6.66;52.13
57847;BME280;43675;50.030;21.952;2024-03-08T10:58:24;99274.80;;;6.75;52.01
57847;BME280;43675;50.030;21.952;2024-03-08T11:00:53;99269.41;;;6.74;51.22
57847;BME280;43675;50.030;21.952;2024-03-08T11:03:52;99268.25;;;6.71;50.96
57847;BME280;43675;50.030;21.952;2024-03-08T11:06:30;99258.15;;;6.76;51.78
57847;BME280;43675;50.030;21.952;2024-03-08T11:08:57;99253.41;;;6.93;51.86
57847;BME280;43675;50.030;21.952;2024-03-08T11:11:24;99252.63;;;7.18;51.99
57847;BME280;43675;50.030;21.952;2024-03-08T11:13:51;99251.94;;;7.41;51.56
57847;BME280;43675;50.030;21.952;2024-03-08T11:18:53;99247.58;;;7.78;50.68
57847;BME280;43675;50.030;21.952;2024-03-08T11:21:20;99245.13;;;7.91;49.99
57847;BME280;43675;50.030;21.952;2024-03-08T11:24:06;99240.65;;;7.97;49.57
57847;BME280;43675;50.030;21.952;2024-03-08T11:26:33;99239.61;;;7.97;49.02
57847;BME280;43675;50.030;21.952;2024-03-08T11:34:43;99241.38;;;7.51;50.06
57847;BME280;43675;50.030;21.952;2024-03-08T11:37:14;99242.45;;;7.30;50.22
57847;BME280;43675;50.030;21.952;2024-03-08T11:39:51;99241.94;;;7.11;50.22
57847;BME280;43675;50.030;21.952;2024-03-08T11:42:19;99239.64;;;6.88;50.49
57847;BME280;43675;50.030;21.952;2024-03-08T11:44:46;99234.27;;;6.67;50.51
57847;BME280;43675;50.030;21.952;2024-03-08T11:47:21;99231.21;;;6.47;51.14
57847;BME280;43675;50.030;21.952;2024-03-08T11:49:48;99230.93;;;6.39;51.81
57847;BME280;43675;50.030;21.952;2024-03-08T11:52:21;99227.69;;;6.25;52.34
57847;BME280;43675;50.030;21.952;2024-03-08T11:54:51;99222.29;;;6.02;52.34
57847;BME280;43675;50.030;21.952;2024-03-08T11:57:18;99222.92;;;5.84;52.69
57847;BME280;43675;50.030;21.952;2024-03-08T11:59:55;99221.27;;;5.75;52.78
57847;BME280;43675;50.030;21.952;2024-03-08T12:02:22;99215.79;;;5.91;53.86
57847;BME280;43675;50.030;21.952;2024-03-08T12:04:58;99216.79;;;6.05;53.26
57847;BME280;43675;50.030;21.952;2024-03-08T12:07:26;99212.66;;;6.18;52.91
57847;BME280;43675;50.030;21.952;2024-03-08T12:10:14;99209.55;;;6.27;52.63
57847;BME280;43675;50.030;21.952;2024-03-08T12:12:41;99212.33;;;6.34;52.81
57847;BME280;43675;50.030;21.952;2024-03-08T12:15:08;99207.17;;;6.38;52.24
57847;BME280;43675;50.030;21.952;2024-03-08T12:17:35;99200.77;;;6.43;51.95
57847;BME280;43675;50.030;21.952;2024-03-08T12:20:12;99197.31;;;6.48;52.17
57847;BME280;43675;50.030;21.952;2024-03-08T12:22:43;99195.34;;;6.53;51.95
57847;BME280;43675;50.030;21.952;2024-03-08T12:25:13;99192.14;;;6.56;52.01
57847;BME280;43675;50.030;21.952;2024-03-08T12:27:41;99190.20;;;6.57;51.66
57847;BME280;43675;50.030;21.952;2024-03-08T12:30:22;99189.20;;;6.60;51.99
57847;BME280;43675;50.030;21.952;2024-03-08T12:32:58;99186.05;;;6.62;51.65
57847;BME280;43675;50.030;21.952;2024-03-08T12:35:27;99187.91;;;6.63;51.93
57847;BME280;43675;50.030;21.952;2024-03-08T12:37:58;99182.83;;;6.61;52.05
57847;BME280;43675;50.030;21.952;2024-03-08T12:40:30;99178.52;;;6.58;52.41
57847;BME280;43675;50.030;21.952;2024-03-08T12:42:58;99180.00;;;6.55;52.39
57847;BME280;43675;50.030;21.952;2024-03-08T12:45:25;99178.42;;;6.47;51.83
57847;BME280;43675;50.030;21.952;2024-03-08T12:47:55;99176.24;;;6.38;51.40
57847;BME280;43675;50.030;21.952;2024-03-08T12:50:29;99172.83;;;6.28;51.59
57847;BME280;43675;50.030;21.952;2024-03-08T12:52:55;99173.01;;;6.18;51.83
57847;BME280;43675;50.030;21.952;2024-03-08T12:55:22;99173.20;;;6.07;52.03
57847;BME280;43675;50.030;21.952;2024-03-08T12:57:49;99166.78;;;5.86;52.04
57847;BME280;43675;50.030;21.952;2024-03-08T13:00:16;99165.14;;;5.67;52.78
57847;BME280;43675;50.030;21.952;2024-03-08T13:02:42;99162.33;;;5.54;52.74
57847;BME280;43675;50.030;21.952;2024-03-08T13:05:09;99160.91;;;5.47;53.32
57847;BME280;43675;50.030;21.952;2024-03-08T13:07:36;99167.59;;;5.38;53.13
57847;BME280;43675;50.030;21.952;2024-03-08T13:10:03;99163.77;;;5.34;54.07
57847;BME280;43675;50.030;21.952;2024-03-08T13:12:30;99162.38;;;5.46;53.83
57847;BME280;43675;50.030;21.952;2024-03-08T13:14:57;99161.06;;;5.61;53.50
57847;BME280;43675;50.030;21.952;2024-03-08T13:17:23;99156.77;;;5.74;53.65
57847;BME280;43675;50.030;21.952;2024-03-08T13:19:50;99152.84;;;5.83;52.72
57847;BME280;43675;50.030;21.952;2024-03-08T13:22:16;99152.56;;;5.92;52.63
57847;BME280;43675;50.030;21.952;2024-03-08T13:24:43;99150.64;;;5.97;52.51